sensor_id;sensor_type;location;lat;lon;timestamp;P1;durP1;ratioP1;P2;durP2;ratioP2
5819;SDS011;2936;47.348;9.640;2024-03-02T00:00:19;19.58;;;11.63;;
5819;SDS011;2936;47.348;9.640;2024-03-02T00:02:47;17.70;;;12.45;;
5819;SDS011;2936;47.348;9.640;2024-03-02T00:05:16;47.95;;;12.57;;
5819;SDS011;2936;47.348;9.640;2024-03-02T00:07:44;12.43;;;10.48;;
5819;SDS011;2936;47.348;9.640;2024-03-02T00:10:16;19.60;;;13.18;;
5819;SDS011;2936;47.348;9.640;2024-03-02T00:12:46;14.95;;;11.55;;
5819;SDS011;2936;47.348;9.640;2024-03-02T00:15:30;11.40;;;9.07;;
5819;SDS011;2936;47.348;9.640;2024-03-02T00:18:00;10.20;;;9.10;;
5819;SDS011;2936;47.348;9.640;2024-03-02T00:20:29;9.90;;;8.90;;
5819;SDS011;2936;47.348;9.640;2024-03-02T00:22:58;10.68;;;8.77;;
5819;SDS011;2936;47.348;9.640;2024-03-02T00:25:34;9.82;;;8.82;;
5819;SDS011;2936;47.348;9.640;2024-03-02T00:28:04;16.38;;;9.77;;
5819;SDS011;2936;47.348;9.640;2024-03-02T00:30:43;9.60;;;8.60;;
5819;SDS011;2936;47.348;9.640;2024-03-02T00:33:13;14.02;;;9.75;;
5819;SDS011;2936;47.348;9.640;2024-03-02T00:35:44;10.70;;;8.63;;
5819;SDS011;2936;47.348;9.640;2024-03-02T00:38:12;12.68;;;8.90;;
5819;SDS011;2936;47.348;9.640;2024-03-02T00:40:40;11.95;;;9.90;;
5819;SDS011;2936;47.348;9.640;2024-03-02T00:43:11;12.20;;;9.70;;
5819;SDS011;2936;47.348;9.640;2024-03-02T00:45:47;22.73;;;13.85;;
5819;SDS011;2936;47.348;9.640;2024-03-02T00:48:15;18.30;;;10.60;;
5819;SDS011;2936;47.348;9.640;2024-03-02T00:50:46;22.33;;;10.20;;
5819;SDS011;2936;47.348;9.640;2024-03-02T00:53:17;19.98;;;12.13;;
5819;SDS011;2936;47.348;9.640;2024-03-02T00:55:46;15.30;;;10.00;;
5819;SDS011;2936;47.348;9.640;2024-03-02T00:58:13;13.25;;;10.07;;
5819;SDS011;2936;47.348;9.640;2024-03-02T01:00:41;12.20;;;8.73;;
5819;SDS011;2936;47.348;9.640;2024-03-02T01:03:08;9.52;;;8.55;;
5819;SDS011;2936;47.348;9.640;2024-03-02T01:05:39;18.95;;;10.40;;
5819;SDS011;2936;47.348;9.640;2024-03-02T01:08:10;22.25;;;9.20;;
5819;SDS011;2936;47.348;9.640;2024-03-02T01:10:37;9.13;;;8.23;;
5819;SDS011;2936;47.348;9.640;2024-03-02T01:13:04;13.63;;;9.98;;
5819;SDS011;2936;47.348;9.640;2024-03-02T01:15:33;9.20;;;8.23;;
5819;SDS011;2936;47.348;9.640;2024-03-02T01:18:01;23.42;;;15.05;;
5819;SDS011;2936;47.348;9.640;2024-03-02T01:20:28;20.63;;;11.45;;
5819;SDS011;2936;47.348;9.640;2024-03-02T01:22:56;20.58;;;11.98;;
5819;SDS011;2936;47.348;9.640;2024-03-02T01:25:25;10.32;;;8.82;;
5819;SDS011;2936;47.348;9.640;2024-03-02T01:27:53;13.43;;;10.20;;
5819;SDS011;2936;47.348;9.640;2024-03-02T01:30:22;16.52;;;9.55;;
5819;SDS011;2936;47.348;9.640;2024-03-02T01:32:49;18.15;;;9.35;;
5819;SDS011;2936;47.348;9.640;2024-03-02T01:35:18;13.23;;;9.55;;
5819;SDS011;2936;47.348;9.640;2024-03-02T01:37:45;12.68;;;9.85;;
5819;SDS011;2936;47.348;9.640;2024-03-02T01:40:13;14.43;;;10.15;;
5819;SDS011;2936;47.348;9.640;2024-03-02T01:42:42;12.20;;;10.63;;
5819;SDS011;2936;47.348;9.640;2024-03-02T01:45:13;13.05;;;9.13;;
5819;SDS011;2936;47.348;9.640;2024-03-02T01:47:41;14.73;;;9.70;;
5819;SDS011;2936;47.348;9.640;2024-03-02T01:50:08;9.43;;;8.52;;
5819;SDS011;2936;47.348;9.640;2024-03-02T01:52:37;12.20;;;9.43;;
5819;SDS011;2936;47.348;9.640;2024-03-02T01:55:05;14.85;;;10.77;;
5819;SDS011;2936;47.348;9.640;2024-03-02T01:57:33;15.93;;;10.50;;
5819;SDS011;2936;47.348;9.640;2024-03-02T02:00:03;17.52;;;12.05;;
5819;SDS011;2936;47.348;9.640;2024-03-02T02:02:31;16.92;;;11.38;;
5819;SDS011;2936;47.348;9.640;2024-03-02T02:04:58;16.48;;;10.93;;
5819;SDS011;2936;47.348;9.640;2024-03-02T02:07:26;14.68;;;9.80;;
5819;SDS011;2936;47.348;9.640;2024-03-02T02:09:54;15.88;;;9.10;;
5819;SDS011;2936;47.348;9.640;2024-03-02T02:12:22;20.45;;;10.45;;
5819;SDS011;2936;47.348;9.640;2024-03-02T02:14:50;13.65;;;9.20;;
5819;SDS011;2936;47.348;9.640;2024-03-02T02:17:20;9.18;;;8.27;;
5819;SDS011;2936;47.348;9.640;2024-03-02T02:19:50;15.07;;;9.20;;
5819;SDS011;2936;47.348;9.640;2024-03-02T02:22:19;12.35;;;9.88;;
5819;SDS011;2936;47.348;9.640;2024-03-02T02:24:47;10.02;;;8.98;;
5819;SDS011;2936;47.348;9.640;2024-03-02T02:27:15;15.63;;;10.43;;
5819;SDS011;2936;47.348;9.640;2024-03-02T02:29:42;22.15;;;10.95;;
5819;SDS011;2936;47.348;9.640;2024-03-02T02:32:12;13.27;;;10.95;;
5819;SDS011;2936;47.348;9.640;2024-03-02T02:34:40;15.70;;;11.60;;
5819;SDS011;2936;47.348;9.640;2024-03-02T02:37:08;11.00;;;9.65;;
5819;SDS011;2936;47.348;9.640;2024-03-02T02:39:38;17.25;;;11.60;;
5819;SDS011;2936;47.348;9.640;2024-03-02T02:42:06;15.00;;;8.80;;
5819;SDS011;2936;47.348;9.640;2024-03-02T02:44:34;8.80;;;7.82;;
5819;SDS011;2936;47.348;9.640;2024-03-02T02:47:02;11.30;;;9.48;;
5819;SDS011;2936;47.348;9.640;2024-03-02T02:49:31;14.18;;;9.68;;
5819;SDS011;2936;47.348;9.640;2024-03-02T02:51:58;20.35;;;9.38;;
5819;SDS011;2936;47.348;9.640;2024-03-02T02:54:26;13.90;;;9.65;;
5819;SDS011;2936;47.348;9.640;2024-03-02T02:56:55;11.90;;;9.23;;
5819;SDS011;2936;47.348;9.640;2024-03-02T02:59:24;8.95;;;8.05;;
5819;SDS011;2936;47.348;9.640;2024-03-02T03:01:52;9.18;;;8.27;;
5819;SDS011;2936;47.348;9.640;2024-03-02T03:04:20;17.55;;;10.05;;
5819;SDS011;2936;47.348;9.640;2024-03-02T03:06:48;12.55;;;9.73;;
5819;SDS011;2936;47.348;9.640;2024-03-02T03:09:16;18.27;;;11.30;;
5819;SDS011;2936;47.348;9.640;2024-03-02T03:11:44;12.20;;;9.55;;
5819;SDS011;2936;47.348;9.640;2024-03-02T03:14:14;16.17;;;10.50;;
5819;SDS011;2936;47.348;9.640;2024-03-02T03:16:42;13.13;;;9.60;;
5819;SDS011;2936;47.348;9.640;2024-03-02T03:19:10;14.55;;;10.23;;
5819;SDS011;2936;47.348;9.640;2024-03-02T03:21:36;9.43;;;8.48;;
5819;SDS011;2936;47.348;9.640;2024-03-02T03:24:04;13.90;;;9.90;;
5819;SDS011;2936;47.348;9.640;2024-03-02T03:26:32;12.18;;;10.18;;
5819;SDS011;2936;47.348;9.640;2024-03-02T03:29:03;14.85;;;9.32;;
5819;SDS011;2936;47.348;9.640;2024-03-02T03:31:33;17.45;;;10.80;;
5819;SDS011;2936;47.348;9.640;2024-03-02T03:34:01;12.88;;;9.70;;
5819;SDS011;2936;47.348;9.640;2024-03-02T03:36:28;9.93;;;8.80;;
5819;SDS011;2936;47.348;9.640;2024-03-02T03:38:57;8.98;;;7.78;;
5819;SDS011;2936;47.348;9.640;2024-03-02T03:41:27;12.23;;;9.00;;
5819;SDS011;2936;47.348;9.640;2024-03-02T03:43:55;9.68;;;8.77;;
5819;SDS011;2936;47.348;9.640;2024-03-02T03:46:22;12.20;;;9.43;;
5819;SDS011;2936;47.348;9.640;2024-03-02T03:48:52;13.95;;;9.98;;
5819;SDS011;2936;47.348;9.640;2024-03-02T03:51:21;13.63;;;10.50;;
5819;SDS011;2936;47.348;9.640;2024-03-02T03:53:49;14.23;;;10.05;;
5819;SDS011;2936;47.348;9.640;2024-03-02T03:56:16;11.70;;;9.60;;
5819;SDS011;2936;47.348;9.640;2024-03-02T03:58:44;12.13;;;9.52;;
5819;SDS011;2936;47.348;9.640;2024-03-02T04:01:12;11.10;;;7.97;;
5819;SDS011;2936;47.348;9.640;2024-03-02T04:03:39;15.02;;;8.82;;
5819;SDS011;2936;47.348;9.640;2024-03-02T04:06:09;12.25;;;9.18;;
5819;SDS011;2936;47.348;9.640;2024-03-02T04:08:37;9.05;;;8.07;;
5819;SDS011;2936;47.348;9.640;2024-03-02T04:11:05;20.73;;;10.30;;
5819;SDS011;2936;47.348;9.640;2024-03-02T04:13:33;10.25;;;8.15;;
5819;SDS011;2936;47.348;9.640;2024-03-02T04:16:00;8.63;;;7.50;;
5819;SDS011;2936;47.348;9.640;2024-03-02T04:18:29;10.32;;;8.52;;
5819;SDS011;2936;47.348;9.640;2024-03-02T04:20:57;9.82;;;7.75;;
5819;SDS011;2936;47.348;9.640;2024-03-02T04:23:26;10.00;;;8.40;;
5819;SDS011;2936;47.348;9.640;2024-03-02T04:25:54;12.07;;;8.65;;
5819;SDS011;2936;47.348;9.640;2024-03-02T04:28:22;15.23;;;9.07;;
5819;SDS011;2936;47.348;9.640;2024-03-02T04:30:49;16.35;;;8.50;;
5819;SDS011;2936;47.348;9.640;2024-03-02T04:33:17;9.60;;;7.82;;
5819;SDS011;2936;47.348;9.640;2024-03-02T04:35:44;16.75;;;7.60;;
5819;SDS011;2936;47.348;9.640;2024-03-02T04:38:12;11.18;;;7.72;;
5819;SDS011;2936;47.348;9.640;2024-03-02T04:40:41;12.00;;;8.38;;
5819;SDS011;2936;47.348;9.640;2024-03-02T04:43:09;11.23;;;8.85;;
5819;SDS011;2936;47.348;9.640;2024-03-02T04:45:40;14.85;;;10.25;;
5819;SDS011;2936;47.348;9.640;2024-03-02T04:48:08;9.25;;;8.40;;
5819;SDS011;2936;47.348;9.640;2024-03-02T04:50:36;16.92;;;9.98;;
5819;SDS011;2936;47.348;9.640;2024-03-02T04:53:04;11.70;;;8.60;;
5819;SDS011;2936;47.348;9.640;2024-03-02T04:55:32;13.98;;;8.25;;
5819;SDS011;2936;47.348;9.640;2024-03-02T04:58:30;8.85;;;7.95;;
5819;SDS011;2936;47.348;9.640;2024-03-02T05:00:58;20.75;;;8.80;;
5819;SDS011;2936;47.348;9.640;2024-03-02T05:03:26;9.88;;;8.82;;
5819;SDS011;2936;47.348;9.640;2024-03-02T05:05:53;10.48;;;9.10;;
5819;SDS011;2936;47.348;9.640;2024-03-02T05:08:21;11.77;;;8.23;;
5819;SDS011;2936;47.348;9.640;2024-03-02T05:10:49;12.90;;;8.95;;
5819;SDS011;2936;47.348;9.640;2024-03-02T05:13:17;12.05;;;8.43;;
5819;SDS011;2936;47.348;9.640;2024-03-02T05:15:47;10.52;;;9.45;;
5819;SDS011;2936;47.348;9.640;2024-03-02T05:18:15;10.95;;;9.20;;
5819;SDS011;2936;47.348;9.640;2024-03-02T05:20:43;10.95;;;9.00;;
5819;SDS011;2936;47.348;9.640;2024-03-02T05:23:10;11.43;;;9.57;;
5819;SDS011;2936;47.348;9.640;2024-03-02T05:25:38;15.55;;;9.70;;
5819;SDS011;2936;47.348;9.640;2024-03-02T05:28:06;27.00;;;10.00;;
5819;SDS011;2936;47.348;9.640;2024-03-02T05:30:33;11.50;;;9.00;;
5819;SDS011;2936;47.348;9.640;2024-03-02T05:33:03;12.02;;;9.23;;
5819;SDS011;2936;47.348;9.640;2024-03-02T05:35:31;11.38;;;8.52;;
5819;SDS011;2936;47.348;9.640;2024-03-02T05:37:59;14.68;;;9.15;;
5819;SDS011;2936;47.348;9.640;2024-03-02T05:40:27;11.60;;;9.40;;
5819;SDS011;2936;47.348;9.640;2024-03-02T05:42:56;13.38;;;9.00;;
5819;SDS011;2936;47.348;9.640;2024-03-02T05:45:25;10.98;;;9.80;;
5819;SDS011;2936;47.348;9.640;2024-03-02T05:47:52;11.30;;;8.60;;
5819;SDS011;2936;47.348;9.640;2024-03-02T05:50:22;8.65;;;7.78;;
5819;SDS011;2936;47.348;9.640;2024-03-02T05:52:50;9.63;;;7.57;;
5819;SDS011;2936;47.348;9.640;2024-03-02T05:55:17;9.43;;;8.40;;
5819;SDS011;2936;47.348;9.640;2024-03-02T05:57:45;8.45;;;7.65;;
5819;SDS011;2936;47.348;9.640;2024-03-02T06:00:24;21.27;;;9.85;;
5819;SDS011;2936;47.348;9.640;2024-03-02T06:02:52;9.55;;;8.30;;
5819;SDS011;2936;47.348;9.640;2024-03-02T06:05:19;11.27;;;8.07;;
5819;SDS011;2936;47.348;9.640;2024-03-02T06:07:49;11.45;;;7.95;;
5819;SDS011;2936;47.348;9.640;2024-03-02T06:10:17;15.32;;;9.35;;
5819;SDS011;2936;47.348;9.640;2024-03-02T06:12:46;14.85;;;8.82;;
5819;SDS011;2936;47.348;9.640;2024-03-02T06:15:13;10.07;;;8.68;;
5819;SDS011;2936;47.348;9.640;2024-03-02T06:17:42;12.70;;;8.55;;
5819;SDS011;2936;47.348;9.640;2024-03-02T06:20:10;12.35;;;10.13;;
5819;SDS011;2936;47.348;9.640;2024-03-02T06:22:38;14.73;;;11.02;;
5819;SDS011;2936;47.348;9.640;2024-03-02T06:25:08;14.60;;;10.43;;
5819;SDS011;2936;47.348;9.640;2024-03-02T06:27:36;11.88;;;10.20;;
5819;SDS011;2936;47.348;9.640;2024-03-02T06:30:04;13.60;;;10.15;;
5819;SDS011;2936;47.348;9.640;2024-03-02T06:32:33;11.50;;;9.25;;
5819;SDS011;2936;47.348;9.640;2024-03-02T06:35:01;16.90;;;10.43;;
5819;SDS011;2936;47.348;9.640;2024-03-02T06:37:30;11.05;;;9.48;;
5819;SDS011;2936;47.348;9.640;2024-03-02T06:39:57;10.52;;;8.95;;
5819;SDS011;2936;47.348;9.640;2024-03-02T06:42:27;17.60;;;10.02;;
5819;SDS011;2936;47.348;9.640;2024-03-02T06:44:58;16.17;;;10.02;;
5819;SDS011;2936;47.348;9.640;2024-03-02T06:47:26;11.85;;;9.52;;
5819;SDS011;2936;47.348;9.640;2024-03-02T06:49:54;14.35;;;10.02;;
5819;SDS011;2936;47.348;9.640;2024-03-02T06:52:22;11.57;;;9.63;;
5819;SDS011;2936;47.348;9.640;2024-03-02T06:54:50;9.98;;;8.30;;
5819;SDS011;2936;47.348;9.640;2024-03-02T06:57:17;17.63;;;9.05;;
5819;SDS011;2936;47.348;9.640;2024-03-02T06:59:47;13.70;;;10.55;;
5819;SDS011;2936;47.348;9.640;2024-03-02T07:02:16;23.00;;;9.15;;
5819;SDS011;2936;47.348;9.640;2024-03-02T07:04:44;11.27;;;8.77;;
5819;SDS011;2936;47.348;9.640;2024-03-02T07:07:12;11.43;;;8.05;;
5819;SDS011;2936;47.348;9.640;2024-03-02T07:09:40;10.32;;;8.23;;
5819;SDS011;2936;47.348;9.640;2024-03-02T07:12:07;10.77;;;8.40;;
5819;SDS011;2936;47.348;9.640;2024-03-02T07:14:35;8.00;;;7.20;;
5819;SDS011;2936;47.348;9.640;2024-03-02T07:17:37;7.28;;;6.55;;
5819;SDS011;2936;47.348;9.640;2024-03-02T07:20:05;9.85;;;7.80;;
5819;SDS011;2936;47.348;9.640;2024-03-02T07:22:34;13.32;;;7.82;;
5819;SDS011;2936;47.348;9.640;2024-03-02T07:25:02;9.90;;;7.72;;
5819;SDS011;2936;47.348;9.640;2024-03-02T07:27:32;11.77;;;8.63;;
5819;SDS011;2936;47.348;9.640;2024-03-02T07:30:00;15.13;;;8.40;;
5819;SDS011;2936;47.348;9.640;2024-03-02T07:32:28;7.50;;;6.80;;
5819;SDS011;2936;47.348;9.640;2024-03-02T07:34:57;8.88;;;7.25;;
5819;SDS011;2936;47.348;9.640;2024-03-02T07:37:26;10.48;;;7.70;;
5819;SDS011;2936;47.348;9.640;2024-03-02T07:39:54;8.88;;;7.82;;
5819;SDS011;2936;47.348;9.640;2024-03-02T07:42:23;10.20;;;7.75;;
5819;SDS011;2936;47.348;9.640;2024-03-02T07:44:52;7.60;;;6.80;;
5819;SDS011;2936;47.348;9.640;2024-03-02T07:47:20;14.57;;;7.68;;
5819;SDS011;2936;47.348;9.640;2024-03-02T07:49:47;15.05;;;6.78;;
5819;SDS011;2936;47.348;9.640;2024-03-02T07:52:16;7.65;;;6.93;;
5819;SDS011;2936;47.348;9.640;2024-03-02T07:54:44;9.13;;;6.55;;
5819;SDS011;2936;47.348;9.640;2024-03-02T07:57:11;8.05;;;6.93;;
5819;SDS011;2936;47.348;9.640;2024-03-02T07:59:39;10.57;;;7.10;;
5819;SDS011;2936;47.348;9.640;2024-03-02T08:02:06;24.40;;;8.70;;
5819;SDS011;2936;47.348;9.640;2024-03-02T08:04:34;11.85;;;7.57;;
5819;SDS011;2936;47.348;9.640;2024-03-02T08:07:02;7.63;;;6.60;;
5819;SDS011;2936;47.348;9.640;2024-03-02T08:09:31;7.82;;;7.05;;
5819;SDS011;2936;47.348;9.640;2024-03-02T08:11:58;7.90;;;7.20;;
5819;SDS011;2936;47.348;9.640;2024-03-02T08:14:26;9.27;;;6.35;;
5819;SDS011;2936;47.348;9.640;2024-03-02T08:16:53;6.03;;;5.47;;
5819;SDS011;2936;47.348;9.640;2024-03-02T08:19:22;7.05;;;6.28;;
5819;SDS011;2936;47.348;9.640;2024-03-02T08:21:49;11.27;;;8.15;;
5819;SDS011;2936;47.348;9.640;2024-03-02T08:24:17;5.47;;;5.07;;
5819;SDS011;2936;47.348;9.640;2024-03-02T08:26:46;6.95;;;6.32;;
5819;SDS011;2936;47.348;9.640;2024-03-02T08:29:13;6.28;;;5.70;;
5819;SDS011;2936;47.348;9.640;2024-03-02T08:31:40;7.28;;;6.55;;
5819;SDS011;2936;47.348;9.640;2024-03-02T08:34:08;8.15;;;5.78;;
5819;SDS011;2936;47.348;9.640;2024-03-02T08:36:35;6.40;;;5.53;;
5819;SDS011;2936;47.348;9.640;2024-03-02T08:39:03;11.48;;;5.03;;
5819;SDS011;2936;47.348;9.640;2024-03-02T08:41:40;4.93;;;4.63;;
5819;SDS011;2936;47.348;9.640;2024-03-02T08:44:10;5.93;;;5.38;;
5819;SDS011;2936;47.348;9.640;2024-03-02T08:46:38;4.80;;;4.50;;
5819;SDS011;2936;47.348;9.640;2024-03-02T08:49:06;6.28;;;5.68;;
5819;SDS011;2936;47.348;9.640;2024-03-02T08:51:34;6.22;;;5.35;;
5819;SDS011;2936;47.348;9.640;2024-03-02T08:54:02;5.78;;;5.30;;
5819;SDS011;2936;47.348;9.640;2024-03-02T08:56:30;6.68;;;5.05;;
5819;SDS011;2936;47.348;9.640;2024-03-02T08:58:58;5.40;;;4.90;;
5819;SDS011;2936;47.348;9.640;2024-03-02T09:01:29;5.47;;;4.97;;
5819;SDS011;2936;47.348;9.640;2024-03-02T09:03:57;5.30;;;4.80;;
5819;SDS011;2936;47.348;9.640;2024-03-02T09:06:25;5.03;;;4.63;;
5819;SDS011;2936;47.348;9.640;2024-03-02T09:08:53;5.47;;;5.07;;
5819;SDS011;2936;47.348;9.640;2024-03-02T09:11:20;5.05;;;4.72;;
5819;SDS011;2936;47.348;9.640;2024-03-02T09:13:49;3.88;;;3.63;;
5819;SDS011;2936;47.348;9.640;2024-03-02T09:16:16;4.72;;;4.35;;
5819;SDS011;2936;47.348;9.640;2024-03-02T09:18:46;4.28;;;4.07;;
5819;SDS011;2936;47.348;9.640;2024-03-02T09:21:14;4.70;;;4.03;;
5819;SDS011;2936;47.348;9.640;2024-03-02T09:23:42;4.90;;;3.97;;
5819;SDS011;2936;47.348;9.640;2024-03-02T09:26:11;3.90;;;3.70;;
5819;SDS011;2936;47.348;9.640;2024-03-02T09:28:41;4.32;;;3.20;;
5819;SDS011;2936;47.348;9.640;2024-03-02T09:31:09;4.18;;;3.97;;
5819;SDS011;2936;47.348;9.640;2024-03-02T09:33:38;3.78;;;3.53;;
5819;SDS011;2936;47.348;9.640;2024-03-02T09:36:10;3.40;;;3.20;;
5819;SDS011;2936;47.348;9.640;2024-03-02T09:38:44;3.30;;;3.20;;
5819;SDS011;2936;47.348;9.640;2024-03-02T09:41:12;4.20;;;2.80;;
5819;SDS011;2936;47.348;9.640;2024-03-02T09:43:40;2.67;;;2.58;;
5819;SDS011;2936;47.348;9.640;2024-03-02T09:46:09;3.17;;;3.08;;
5819;SDS011;2936;47.348;9.640;2024-03-02T09:48:37;3.03;;;2.83;;
5819;SDS011;2936;47.348;9.640;2024-03-02T09:51:05;3.70;;;3.33;;
5819;SDS011;2936;47.348;9.640;2024-03-02T09:53:35;2.90;;;2.80;;
5819;SDS011;2936;47.348;9.640;2024-03-02T09:56:03;8.02;;;4.53;;
5819;SDS011;2936;47.348;9.640;2024-03-02T09:58:31;4.15;;;3.95;;
5819;SDS011;2936;47.348;9.640;2024-03-02T10:00:59;4.00;;;3.80;;
5819;SDS011;2936;47.348;9.640;2024-03-02T10:03:27;3.75;;;3.55;;
5819;SDS011;2936;47.348;9.640;2024-03-02T10:08:44;4.20;;;4.00;;
5819;SDS011;2936;47.348;9.640;2024-03-02T10:11:15;3.53;;;3.42;;
5819;SDS011;2936;47.348;9.640;2024-03-02T10:14:03;2.88;;;2.78;;
5819;SDS011;2936;47.348;9.640;2024-03-02T10:16:33;2.70;;;2.60;;
5819;SDS011;2936;47.348;9.640;2024-03-02T10:19:17;2.40;;;2.30;;
5819;SDS011;2936;47.348;9.640;2024-03-02T10:21:46;2.58;;;2.47;;
5819;SDS011;2936;47.348;9.640;2024-03-02T10:24:16;3.00;;;2.80;;
5819;SDS011;2936;47.348;9.640;2024-03-02T10:26:44;2.70;;;2.60;;
5819;SDS011;2936;47.348;9.640;2024-03-02T10:29:12;2.75;;;2.63;;
5819;SDS011;2936;47.348;9.640;2024-03-02T10:31:40;2.33;;;2.22;;
5819;SDS011;2936;47.348;9.640;2024-03-02T10:34:08;2.90;;;2.80;;
5819;SDS011;2936;47.348;9.640;2024-03-02T10:36:37;2.60;;;2.50;;
5819;SDS011;2936;47.348;9.640;2024-03-02T10:39:05;3.00;;;2.90;;
5819;SDS011;2936;47.348;9.640;2024-03-02T10:41:35;2.83;;;2.72;;
5819;SDS011;2936;47.348;9.640;2024-03-02T10:44:03;2.72;;;2.63;;
5819;SDS011;2936;47.348;9.640;2024-03-02T10:46:33;2.45;;;2.35;;
5819;SDS011;2936;47.348;9.640;2024-03-02T10:49:01;3.22;;;3.08;;
5819;SDS011;2936;47.348;9.640;2024-03-02T10:51:29;2.75;;;2.65;;
5819;SDS011;2936;47.348;9.640;2024-03-02T10:54:00;2.50;;;2.40;;
5819;SDS011;2936;47.348;9.640;2024-03-02T10:56:29;3.03;;;2.90;;
5819;SDS011;2936;47.348;9.640;2024-03-02T10:59:01;2.65;;;2.55;;
5819;SDS011;2936;47.348;9.640;2024-03-02T11:01:30;2.90;;;2.78;;
5819;SDS011;2936;47.348;9.640;2024-03-02T11:03:59;2.60;;;2.47;;
5819;SDS011;2936;47.348;9.640;2024-03-02T11:06:31;2.60;;;2.50;;
5819;SDS011;2936;47.348;9.640;2024-03-02T11:09:04;2.67;;;2.58;;
5819;SDS011;2936;47.348;9.640;2024-03-02T11:11:36;7.88;;;3.05;;
5819;SDS011;2936;47.348;9.640;2024-03-02T11:14:07;2.65;;;2.55;;
5819;SDS011;2936;47.348;9.640;2024-03-02T11:16:36;2.42;;;2.33;;
5819;SDS011;2936;47.348;9.640;2024-03-02T11:19:07;2.85;;;2.70;;
5819;SDS011;2936;47.348;9.640;2024-03-02T11:21:35;2.40;;;2.30;;
5819;SDS011;2936;47.348;9.640;2024-03-02T11:26:46;2.10;;;2.00;;
5819;SDS011;2936;47.348;9.640;2024-03-02T11:29:26;11.85;;;3.80;;
5819;SDS011;2936;47.348;9.640;2024-03-02T11:32:13;2.80;;;2.70;;
5819;SDS011;2936;47.348;9.640;2024-03-02T11:34:41;2.40;;;2.30;;
5819;SDS011;2936;47.348;9.640;2024-03-02T11:37:12;3.97;;;2.65;;
5819;SDS011;2936;47.348;9.640;2024-03-02T11:39:40;10.80;;;2.35;;
5819;SDS011;2936;47.348;9.640;2024-03-02T11:42:10;2.60;;;2.40;;
5819;SDS011;2936;47.348;9.640;2024-03-02T11:44:41;2.55;;;2.45;;
5819;SDS011;2936;47.348;9.640;2024-03-02T11:47:10;2.67;;;2.03;;
5819;SDS011;2936;47.348;9.640;2024-03-02T11:49:40;8.20;;;7.45;;
5819;SDS011;2936;47.348;9.640;2024-03-02T11:52:08;5.07;;;4.75;;
5819;SDS011;2936;47.348;9.640;2024-03-02T11:54:37;4.45;;;4.20;;
5819;SDS011;2936;47.348;9.640;2024-03-02T11:57:06;3.40;;;3.10;;
5819;SDS011;2936;47.348;9.640;2024-03-02T11:59:34;2.63;;;2.47;;
5819;SDS011;2936;47.348;9.640;2024-03-02T12:02:03;2.80;;;2.70;;
5819;SDS011;2936;47.348;9.640;2024-03-02T12:04:31;9.55;;;8.60;;
5819;SDS011;2936;47.348;9.640;2024-03-02T12:06:59;5.57;;;5.22;;
5819;SDS011;2936;47.348;9.640;2024-03-02T12:09:27;3.90;;;3.70;;
5819;SDS011;2936;47.348;9.640;2024-03-02T12:12:02;2.70;;;2.55;;
5819;SDS011;2936;47.348;9.640;2024-03-02T12:14:30;3.22;;;2.92;;
5819;SDS011;2936;47.348;9.640;2024-03-02T12:16:58;3.08;;;2.88;;
5819;SDS011;2936;47.348;9.640;2024-03-02T12:19:27;2.70;;;2.53;;
5819;SDS011;2936;47.348;9.640;2024-03-02T12:21:55;2.40;;;2.30;;
5819;SDS011;2936;47.348;9.640;2024-03-02T12:24:23;2.20;;;2.10;;
5819;SDS011;2936;47.348;9.640;2024-03-02T12:26:52;8.52;;;3.42;;
5819;SDS011;2936;47.348;9.640;2024-03-02T12:29:20;3.38;;;2.72;;
5819;SDS011;2936;47.348;9.640;2024-03-02T12:31:49;3.20;;;2.35;;
5819;SDS011;2936;47.348;9.640;2024-03-02T12:34:17;2.80;;;2.70;;
5819;SDS011;2936;47.348;9.640;2024-03-02T12:36:47;3.13;;;3.03;;
5819;SDS011;2936;47.348;9.640;2024-03-02T12:39:18;2.70;;;2.60;;
5819;SDS011;2936;47.348;9.640;2024-03-02T12:41:48;3.13;;;3.00;;
5819;SDS011;2936;47.348;9.640;2024-03-02T12:44:17;5.15;;;3.58;;
5819;SDS011;2936;47.348;9.640;2024-03-02T12:46:47;2.33;;;2.22;;
5819;SDS011;2936;47.348;9.640;2024-03-02T12:49:15;2.30;;;2.20;;
5819;SDS011;2936;47.348;9.640;2024-03-02T12:51:47;2.33;;;2.25;;
5819;SDS011;2936;47.348;9.640;2024-03-02T12:54:21;2.75;;;2.65;;
5819;SDS011;2936;47.348;9.640;2024-03-02T12:56:50;2.40;;;2.30;;
5819;SDS011;2936;47.348;9.640;2024-03-02T12:59:19;2.30;;;2.22;;
5819;SDS011;2936;47.348;9.640;2024-03-02T13:01:51;1.70;;;1.70;;
5819;SDS011;2936;47.348;9.640;2024-03-02T13:04:21;2.08;;;2.08;;
5819;SDS011;2936;47.348;9.640;2024-03-02T13:06:52;2.67;;;1.58;;
5819;SDS011;2936;47.348;9.640;2024-03-02T13:09:22;2.40;;;2.25;;
5819;SDS011;2936;47.348;9.640;2024-03-02T13:11:50;1.50;;;1.50;;
5819;SDS011;2936;47.348;9.640;2024-03-02T13:14:18;1.83;;;1.80;;
5819;SDS011;2936;47.348;9.640;2024-03-02T13:16:46;2.20;;;2.10;;
5819;SDS011;2936;47.348;9.640;2024-03-02T13:19:14;2.33;;;2.22;;
5819;SDS011;2936;47.348;9.640;2024-03-02T13:21:42;1.80;;;1.70;;
5819;SDS011;2936;47.348;9.640;2024-03-02T13:24:11;2.15;;;2.03;;
5819;SDS011;2936;47.348;9.640;2024-03-02T13:26:39;1.80;;;1.80;;
5819;SDS011;2936;47.348;9.640;2024-03-02T13:29:07;1.50;;;1.50;;
5819;SDS011;2936;47.348;9.640;2024-03-02T13:31:34;3.85;;;1.77;;
5819;SDS011;2936;47.348;9.640;2024-03-02T13:34:02;1.83;;;1.80;;
5819;SDS011;2936;47.348;9.640;2024-03-02T13:36:30;1.60;;;1.60;;
5819;SDS011;2936;47.348;9.640;2024-03-02T13:38:58;5.45;;;2.17;;
5819;SDS011;2936;47.348;9.640;2024-03-02T13:41:28;2.10;;;2.00;;
5819;SDS011;2936;47.348;9.640;2024-03-02T13:43:56;2.80;;;2.60;;
5819;SDS011;2936;47.348;9.640;2024-03-02T13:46:26;1.90;;;1.90;;
5819;SDS011;2936;47.348;9.640;2024-03-02T13:48:54;1.87;;;1.87;;
5819;SDS011;2936;47.348;9.640;2024-03-02T13:51:22;1.92;;;1.92;;
5819;SDS011;2936;47.348;9.640;2024-03-02T13:53:50;2.03;;;1.92;;
5819;SDS011;2936;47.348;9.640;2024-03-02T13:56:18;2.08;;;2.05;;
5819;SDS011;2936;47.348;9.640;2024-03-02T13:58:49;2.20;;;2.10;;
5819;SDS011;2936;47.348;9.640;2024-03-02T14:01:17;2.10;;;2.00;;
5819;SDS011;2936;47.348;9.640;2024-03-02T14:03:44;2.78;;;2.58;;
5819;SDS011;2936;47.348;9.640;2024-03-02T14:06:12;2.87;;;2.67;;
5819;SDS011;2936;47.348;9.640;2024-03-02T14:08:40;2.97;;;2.78;;
5819;SDS011;2936;47.348;9.640;2024-03-02T14:11:10;2.77;;;2.67;;
5819;SDS011;2936;47.348;9.640;2024-03-02T14:13:40;3.57;;;2.27;;
5819;SDS011;2936;47.348;9.640;2024-03-02T14:16:16;2.20;;;2.10;;
5819;SDS011;2936;47.348;9.640;2024-03-02T14:18:44;2.65;;;2.45;;
5819;SDS011;2936;47.348;9.640;2024-03-02T14:21:13;2.63;;;2.53;;
5819;SDS011;2936;47.348;9.640;2024-03-02T14:23:40;4.10;;;2.13;;
5819;SDS011;2936;47.348;9.640;2024-03-02T14:26:08;2.03;;;1.93;;
5819;SDS011;2936;47.348;9.640;2024-03-02T14:28:36;1.77;;;1.67;;
5819;SDS011;2936;47.348;9.640;2024-03-02T14:31:03;2.13;;;2.03;;
5819;SDS011;2936;47.348;9.640;2024-03-02T14:33:33;2.03;;;2.03;;
5819;SDS011;2936;47.348;9.640;2024-03-02T14:36:01;7.05;;;3.58;;
5819;SDS011;2936;47.348;9.640;2024-03-02T14:38:29;2.43;;;2.33;;
5819;SDS011;2936;47.348;9.640;2024-03-02T14:40:57;2.03;;;1.93;;
5819;SDS011;2936;47.348;9.640;2024-03-02T14:43:25;2.67;;;2.57;;
5819;SDS011;2936;47.348;9.640;2024-03-02T14:45:53;2.67;;;2.47;;
5819;SDS011;2936;47.348;9.640;2024-03-02T14:48:21;2.10;;;2.10;;
5819;SDS011;2936;47.348;9.640;2024-03-02T14:50:50;3.15;;;2.95;;
5819;SDS011;2936;47.348;9.640;2024-03-02T14:53:19;2.60;;;2.40;;
5819;SDS011;2936;47.348;9.640;2024-03-02T14:55:46;2.77;;;2.60;;
5819;SDS011;2936;47.348;9.640;2024-03-02T14:58:15;3.00;;;2.80;;
5819;SDS011;2936;47.348;9.640;2024-03-02T15:00:42;2.23;;;2.13;;
5819;SDS011;2936;47.348;9.640;2024-03-02T15:03:10;2.93;;;2.47;;
5819;SDS011;2936;47.348;9.640;2024-03-02T15:05:38;2.60;;;2.50;;
5819;SDS011;2936;47.348;9.640;2024-03-02T15:08:10;2.60;;;2.50;;
5819;SDS011;2936;47.348;9.640;2024-03-02T15:10:38;2.80;;;2.60;;
5819;SDS011;2936;47.348;9.640;2024-03-02T15:13:06;2.03;;;1.93;;
5819;SDS011;2936;47.348;9.640;2024-03-02T15:15:34;3.15;;;2.25;;
5819;SDS011;2936;47.348;9.640;2024-03-02T15:18:02;2.50;;;2.40;;
5819;SDS011;2936;47.348;9.640;2024-03-02T15:20:30;2.40;;;2.25;;
5819;SDS011;2936;47.348;9.640;2024-03-02T15:22:57;2.23;;;2.10;;